Lexington, KY (40509)

2:24 PM EDT on April 01, 2015 (GMT -0400)
Gleneagles | | Change Station
CLOSE
Current Station
Personal Weather Station
Location: Lexington, KY
Elevation: 1017 ft
Nearby Weather Stations

Elev 1017 ft 38.02 °N, 84.40 °W | Updated 8 minutes ago

Clear
Clear
70.5 °F
Feels Like 74 °F
N
0.7
Wind Variable Wind from SE
Gusts 4.5 mph

Today
High -- | Low -- °F
--% Chance of Precip.
Yesterday
High -- | Low -- °F
Precip. -- in
7:23 AM 8:00 PM
Waxing Gibbous, 93% visible
Pressure 30.15 in
Visibility 10.0 miles
Clouds Clear
Heat Index 74 °F
Dew Point 28 °F
Humidity 20%
Rainfall 0.00 in
Snow Depth Not available.
UV 9 out of 12
Pollen 10.10 out of 12
Air Quality Not available.
Flu Activity Not available.
METAR KLEX 011754Z VRB05G14KT 10SM CLR 16/M01 A3015 RMK AO2 SLP209 T01611011 10167 20017 58003

More Conditions Fewer Conditions

Pressure 30.15 in
Visibility 10.0 miles
Clouds Clear
Heat Index 74 °F
Dew Point 28 °F
Humidity 20%
Rainfall 0.00 in
Snow Depth Not available.
UV 9 out of 12
Pollen 10.10 out of 12
Air Quality Not available.
Flu Activity Not available.
METAR KLEX 011754Z VRB05G14KT 10SM CLR 16/M01 A3015 RMK AO2 SLP209 T01611011 10167 20017 58003

More Conditions Fewer Conditions

10-Day Weather Forecast

Almanac

Astronomy

Apr. 01, 2015 Rise Set
Actual Time
Civil Twilight
Nautical Twilight
Astronomical Twilight
Moon
Length of Visible Light
Length of Day
Tomorrow will be .
, % of the Moon is Illuminated

Today's Extremes

State Highs State Lows

Community

WunderPhotos

Upload Photos

1,810,035 photos uploaded!

WunderBlogs® & News

Nearby

Air Quality

  Air Quality AQ Index Pollutant
Not available.

Snow Depth

Station Depth Elevation

Earthquake Activity

City Distance Mag. Time & Date
Minimum magnitude displayed is 2.5.

Coastal Water Temperatures

Place Temperature

Stations

Nearby Weather Stations

Station Location Temp. Windchill Dew Point Humidity Wind Precip. Elev Updated Type